Archival Weather

Republic

Farmingdale, New York (KFRG)

Report from: Wednesday, January 24, 2024 6:04 AM EST
Current time: Monday, June 17, 2024 4:13 AM EDT

Current weather – Weather history – Daily summaries
Weather forecast

Present weatherMist
Temperature2.8°C (37.0°F)
Wind chill0.7°C (33.3°F)
Dew point2.2°C (36.0°F)
Winds 4 kts (2.1 m/s, 4.6 mph) East (100°)
Visibility5 mi. (8 km)
Clouds Scattered clouds 500 ft. (152 m)
Ceiling: Overcast 6,500 ft. (1,981 m)
Altimeter30.53 in.Hg (1034 mB)
Relative humidity96 %
Density altitude-2,074 ft. (-632 m)
Remarks Fully automated report
Automated weather observing station with precipitation discriminator
Present weather sensor not operating
Flight conditions Visual Meteorological Conditions
Raw dataKFRG 241104Z AUTO 10004KT 5SM BR SCT005 OVC065 03/02 A3053 RMK AO2 T00280022 PWINO
An error has occurred. This application may no longer respond until reloaded. Reload 🗙